Sea Isle City, New Jersey
Current Conditions -  °F | °C
As of 7:15 AM on Friday 24 Oct 2014 (Local Time) from KWWD Reporting Station
Overcast Overcast  
Wind Chill: 55°   Ceiling: 3300
Heat Index: 55°   Visibility: 10mi
Dew Point: 45°   Wind: 12mph
Humidity: 67%   Direction: 310°NW
Pressure: 29.86"   Gusts: 17mph
Location:  39.15°N, 74.69°W
Report Text: KWWD 241115Z AUTO 31010G15KT 10SM OVC033 13/07 A2986 RMK AO1
Loading
Personal Weather Stations






























Interactive Weather Map New forecast layout! Learn more

10-Day Weather Forecast

Advertisements
Track Severe Weather on mobile